Аэропорт: Псков. Псков

ICAO: ULOO

METAR:
2018/05/20 23:00
ULOO 202300Z AUTO VRB01MPS 9000 // NCD 07/05 Q1027 RMK QFE766
METAR:
2016/02/06 08:39
TAF 
      AMD TAF 
      AMD ULOO 061936Z 0608/0703 CNL